createdAt,value
2017-05-16T00:00:40.184Z,9.00
2017-05-16T00:03:08.392Z,8.90
2017-05-16T00:05:35.418Z,8.90
2017-05-16T00:08:03.168Z,8.90
2017-05-16T00:10:30.195Z,8.90
2017-05-16T00:12:57.228Z,8.90
2017-05-16T00:15:24.277Z,8.90
2017-05-16T00:17:52.348Z,8.90
2017-05-16T00:20:19.362Z,9.00
2017-05-16T00:22:46.332Z,9.00
2017-05-16T00:25:13.779Z,9.00
2017-05-16T00:27:40.813Z,9.00
2017-05-16T00:30:07.844Z,9.00
2017-05-16T00:32:35.593Z,8.90
2017-05-16T00:35:02.627Z,8.90
2017-05-16T00:37:29.698Z,8.90
2017-05-16T00:39:57.454Z,8.90
2017-05-16T00:42:25.204Z,8.90
2017-05-16T00:44:52.336Z,8.90
2017-05-16T00:47:19.336Z,8.90
2017-05-16T00:49:46.362Z,8.80
2017-05-16T00:52:14.135Z,8.80
2017-05-16T00:54:41.127Z,8.70
2017-05-16T00:57:08.130Z,8.70
2017-05-16T00:59:35.114Z,8.70
2017-05-16T01:02:02.210Z,8.60
2017-05-16T01:04:29.206Z,8.60
2017-05-16T01:06:56.388Z,8.60
2017-05-16T01:09:23.849Z,8.60
2017-05-16T01:11:50.869Z,8.60
2017-05-16T01:14:17.905Z,8.60
2017-05-16T01:16:44.936Z,8.60
2017-05-16T01:19:11.946Z,8.60
2017-05-16T01:21:39.734Z,8.60
2017-05-16T01:24:06.760Z,8.60
2017-05-16T01:26:34.480Z,8.60
2017-05-16T01:29:01.503Z,8.60
2017-05-16T01:31:28.578Z,8.60
2017-05-16T01:33:55.677Z,8.60
2017-05-16T01:36:22.673Z,8.60
2017-05-16T01:38:49.695Z,8.60
2017-05-16T01:41:16.734Z,8.60
2017-05-16T01:43:43.760Z,8.60
2017-05-16T01:46:10.718Z,8.50
2017-05-16T01:48:37.724Z,8.50
2017-05-16T01:51:05.484Z,8.40
2017-05-16T01:53:32.537Z,8.40
2017-05-16T01:56:00.296Z,8.40
2017-05-16T01:58:27.304Z,8.40
2017-05-16T02:00:54.325Z,8.40
2017-05-16T02:03:21.359Z,8.30
2017-05-16T02:05:48.340Z,8.30
2017-05-16T02:08:15.294Z,8.30
2017-05-16T02:10:42.234Z,8.30
2017-05-16T02:13:09.141Z,8.20
2017-05-16T02:15:36.089Z,8.30
2017-05-16T02:18:03.025Z,8.20
2017-05-16T02:20:29.925Z,8.20
2017-05-16T02:22:56.847Z,8.20
2017-05-16T02:25:23.794Z,8.20
2017-05-16T02:27:50.711Z,8.20
2017-05-16T02:30:17.721Z,8.10
2017-05-16T02:32:44.639Z,8.10
2017-05-16T02:35:11.578Z,8.10
2017-05-16T02:37:38.502Z,8.10
2017-05-16T02:40:05.433Z,8.00
2017-05-16T02:42:32.356Z,8.00
2017-05-16T02:44:59.311Z,8.00
2017-05-16T02:47:26.250Z,8.00
2017-05-16T02:49:53.183Z,7.90
2017-05-16T02:52:20.882Z,7.90
2017-05-16T02:54:47.790Z,7.90
2017-05-16T02:57:15.455Z,7.90
2017-05-16T02:59:43.131Z,7.90
2017-05-16T03:02:10.064Z,7.90
2017-05-16T03:04:36.991Z,7.80
2017-05-16T03:07:04.653Z,7.80
2017-05-16T03:09:32.342Z,7.80
2017-05-16T03:11:59.277Z,7.80
2017-05-16T03:14:26.195Z,7.70
2017-05-16T03:16:53.866Z,7.70
2017-05-16T03:19:21.527Z,7.60
2017-05-16T03:21:49.205Z,7.60
2017-05-16T03:24:16.120Z,7.60
2017-05-16T03:26:43.057Z,7.60
2017-05-16T03:29:09.998Z,7.70
2017-05-16T03:31:36.918Z,7.70
2017-05-16T03:34:03.838Z,7.70
2017-05-16T03:36:30.791Z,7.80
2017-05-16T03:38:57.727Z,7.90
2017-05-16T03:41:24.650Z,7.90
2017-05-16T03:43:51.575Z,8.10
2017-05-16T03:46:18.509Z,8.20
2017-05-16T03:48:45.437Z,8.30
2017-05-16T03:51:12.370Z,8.40
2017-05-16T03:53:39.314Z,8.60
2017-05-16T03:56:06.245Z,8.80
2017-05-16T03:58:33.255Z,8.90
2017-05-16T04:01:00.942Z,9.00
2017-05-16T04:03:27.911Z,9.20
2017-05-16T04:05:54.847Z,9.20
2017-05-16T04:08:21.792Z,9.30
2017-05-16T04:10:48.735Z,9.40
2017-05-16T04:13:16.223Z,9.50
2017-05-16T04:15:43.185Z,9.50
2017-05-16T04:18:10.858Z,9.60
2017-05-16T04:20:37.786Z,9.70
2017-05-16T04:23:04.706Z,9.80
2017-05-16T04:25:31.715Z,9.90
2017-05-16T04:27:58.669Z,9.90
2017-05-16T04:30:25.640Z,10.00
2017-05-16T04:32:52.599Z,10.10
2017-05-16T04:35:20.490Z,10.20
2017-05-16T04:37:47.506Z,10.30
2017-05-16T04:40:14.538Z,10.50
2017-05-16T04:42:41.518Z,10.70
2017-05-16T04:45:09.257Z,10.90
2017-05-16T04:47:36.233Z,11.20
2017-05-16T04:50:03.211Z,11.40
2017-05-16T04:52:30.167Z,11.60
2017-05-16T04:54:57.144Z,11.80
2017-05-16T04:57:25.220Z,12.00
2017-05-16T04:59:53.251Z,12.20
2017-05-16T05:02:20.198Z,12.50
2017-05-16T05:04:47.558Z,12.70
2017-05-16T05:07:14.631Z,12.90
2017-05-16T05:09:41.574Z,13.20
2017-05-16T05:12:08.543Z,13.50
2017-05-16T05:14:36.361Z,13.80
2017-05-16T05:17:04.046Z,14.20
2017-05-16T05:19:30.981Z,14.60
2017-05-16T05:21:58.018Z,15.00
2017-05-16T05:24:24.982Z,15.20
2017-05-16T05:26:51.972Z,15.50
2017-05-16T05:29:18.960Z,15.90
2017-05-16T05:31:45.923Z,16.20
2017-05-16T05:34:13.467Z,16.50
2017-05-16T05:36:41.270Z,16.90
2017-05-16T05:39:08.664Z,17.40
2017-05-16T05:41:36.432Z,17.50
2017-05-16T05:44:04.438Z,17.60
2017-05-16T05:46:32.411Z,17.70
2017-05-16T05:49:00.235Z,17.70
2017-05-16T05:51:27.221Z,17.70
2017-05-16T05:53:54.593Z,17.60
2017-05-16T05:56:22.998Z,17.50
2017-05-16T05:58:50.014Z,17.70
2017-05-16T06:01:17.480Z,18.00
2017-05-16T06:03:44.500Z,18.30
2017-05-16T06:06:13.246Z,18.50
2017-05-16T06:08:41.319Z,18.70
2017-05-16T06:11:09.238Z,18.90
2017-05-16T06:13:37.261Z,19.30
2017-05-16T06:16:04.945Z,19.70
2017-05-16T06:18:33.110Z,20.10
2017-05-16T06:21:00.921Z,20.30
2017-05-16T06:23:31.647Z,20.30
2017-05-16T06:32:34.200Z,21.00
2017-05-16T06:37:59.364Z,23.30
2017-05-16T12:17:54.441Z,24.10
2017-05-16T13:52:48.981Z,24.60
2017-05-16T15:21:52.693Z,24.00
2017-05-16T15:24:19.826Z,23.80
2017-05-16T17:10:26.707Z,21.10
2017-05-16T17:16:07.340Z,20.80
2017-05-16T17:18:34.687Z,20.60
2017-05-16T17:23:50.402Z,20.40
2017-05-16T17:26:19.493Z,20.30
2017-05-16T17:28:48.944Z,20.20
2017-05-16T17:31:28.918Z,20.10
2017-05-16T17:33:56.870Z,20.00
2017-05-16T17:36:25.431Z,19.90
2017-05-16T17:38:52.817Z,19.90
2017-05-16T17:41:21.790Z,19.90
2017-05-16T17:43:49.350Z,19.90
2017-05-16T17:46:18.263Z,19.80
2017-05-16T17:48:46.561Z,19.70
2017-05-16T17:51:14.094Z,19.70
2017-05-16T17:56:14.589Z,19.40
2017-05-16T17:58:42.038Z,19.30
2017-05-16T18:01:09.101Z,19.30
2017-05-16T18:03:37.151Z,19.20
2017-05-16T18:06:04.807Z,19.20
2017-05-16T18:08:36.776Z,19.10
2017-05-16T18:11:04.259Z,19.00
2017-05-16T18:13:32.145Z,18.90
2017-05-16T18:15:59.213Z,18.80
2017-05-16T18:18:28.791Z,18.80
2017-05-16T18:26:55.620Z,18.50
2017-05-16T18:29:23.935Z,18.40
2017-05-16T18:31:52.303Z,18.30
2017-05-16T18:34:19.415Z,18.30
2017-05-16T18:36:47.211Z,18.20
2017-05-16T18:39:14.908Z,18.10
2017-05-16T18:41:41.983Z,18.00
2017-05-16T18:44:10.122Z,17.90
2017-05-16T18:46:37.871Z,17.90
2017-05-16T18:49:05.077Z,17.90
2017-05-16T18:51:32.096Z,17.80
2017-05-16T18:53:59.257Z,17.70
2017-05-16T18:56:26.833Z,17.70
2017-05-16T18:58:53.894Z,17.70
2017-05-16T19:01:21.249Z,17.60
2017-05-16T19:03:48.378Z,17.60
2017-05-16T19:06:15.396Z,17.60
2017-05-16T19:08:43.022Z,17.50
2017-05-16T19:11:10.244Z,17.50
2017-05-16T19:13:37.393Z,17.50
2017-05-16T19:16:04.470Z,17.40
2017-05-16T19:18:32.509Z,17.40
2017-05-16T19:20:59.579Z,17.40
2017-05-16T19:23:26.866Z,17.40
2017-05-16T19:25:54.014Z,17.30
2017-05-16T19:28:21.899Z,17.30
2017-05-16T19:30:49.006Z,17.30
2017-05-16T19:33:16.189Z,17.30
2017-05-16T19:35:43.253Z,17.30
2017-05-16T19:38:10.353Z,17.20
2017-05-16T19:40:37.899Z,17.20
2017-05-16T19:43:05.144Z,17.20
2017-05-16T19:45:32.171Z,17.20
2017-05-16T19:47:59.350Z,17.10
2017-05-16T19:50:26.520Z,17.10
2017-05-16T19:52:54.288Z,17.00
2017-05-16T19:55:22.126Z,17.00
2017-05-16T19:57:49.205Z,17.00
2017-05-16T20:00:17.009Z,16.90
2017-05-16T20:02:43.999Z,16.90
2017-05-16T20:05:11.451Z,16.90
2017-05-16T20:07:38.521Z,16.90
2017-05-16T20:10:06.431Z,16.90
2017-05-16T20:12:33.560Z,16.90
2017-05-16T20:15:00.593Z,16.90
2017-05-16T20:17:27.948Z,16.80
2017-05-16T20:19:55.116Z,16.80
2017-05-16T20:22:22.404Z,16.80
2017-05-16T20:24:49.511Z,16.80
2017-05-16T20:27:17.328Z,16.80
2017-05-16T20:29:45.172Z,16.70
2017-05-16T20:32:12.299Z,16.80
2017-05-16T20:34:39.300Z,16.80
2017-05-16T20:37:06.407Z,16.80
2017-05-16T20:39:33.421Z,16.90
2017-05-16T20:42:00.401Z,16.90
2017-05-16T20:44:27.479Z,16.90
2017-05-16T20:46:54.477Z,16.90
2017-05-16T20:49:21.483Z,16.90
2017-05-16T20:51:48.614Z,16.90
2017-05-16T20:54:16.616Z,16.90
2017-05-16T20:56:43.650Z,16.90
2017-05-16T20:59:10.710Z,16.90
2017-05-16T21:01:37.855Z,16.90
2017-05-16T21:04:05.565Z,16.80
2017-05-16T21:06:32.559Z,16.80
2017-05-16T21:08:59.565Z,16.80
2017-05-16T21:11:27.500Z,16.80
2017-05-16T21:13:56.352Z,16.80
2017-05-16T21:16:24.127Z,16.80
2017-05-16T21:18:51.888Z,16.70
2017-05-16T21:21:18.930Z,16.70
2017-05-16T21:23:46.919Z,16.60
2017-05-16T21:26:14.043Z,16.60
2017-05-16T21:28:41.756Z,16.60
2017-05-16T21:31:10.071Z,16.60
2017-05-16T21:33:37.140Z,16.50
2017-05-16T21:36:04.216Z,16.50
2017-05-16T21:38:31.278Z,16.50
2017-05-16T21:40:58.268Z,16.50
2017-05-16T21:43:26.015Z,16.40
2017-05-16T21:45:53.028Z,16.40
2017-05-16T21:48:20.051Z,16.40
2017-05-16T21:50:47.079Z,16.30
2017-05-16T21:53:14.065Z,16.30
2017-05-16T21:55:41.067Z,16.40
2017-05-16T21:58:08.163Z,16.30
2017-05-16T22:00:35.188Z,16.30
2017-05-16T22:03:02.359Z,16.30
2017-05-16T22:05:29.391Z,16.20
2017-05-16T22:07:57.157Z,16.20
2017-05-16T22:10:24.202Z,16.20
2017-05-16T22:12:51.188Z,16.20
2017-05-16T22:15:18.180Z,16.20
2017-05-16T22:17:45.487Z,16.20
2017-05-16T22:20:12.470Z,16.10
2017-05-16T22:22:39.466Z,16.10
2017-05-16T22:25:06.444Z,16.10
2017-05-16T22:27:34.270Z,16.10
2017-05-16T22:30:01.246Z,16.10
2017-05-16T22:32:28.959Z,16.10
2017-05-16T22:34:55.983Z,16.10
2017-05-16T22:37:22.980Z,16.10
2017-05-16T22:39:50.738Z,16.10
2017-05-16T22:42:17.806Z,16.10
2017-05-16T22:44:44.838Z,16.10
2017-05-16T22:47:12.610Z,16.10
2017-05-16T22:49:39.680Z,16.10
2017-05-16T22:52:06.642Z,16.10
2017-05-16T22:54:33.799Z,16.10
2017-05-16T22:57:00.793Z,16.10
2017-05-16T22:59:27.899Z,16.10
2017-05-16T23:01:54.938Z,16.10
2017-05-16T23:04:21.950Z,16.00
2017-05-16T23:06:49.042Z,16.00
2017-05-16T23:09:17.571Z,16.00
2017-05-16T23:11:45.555Z,15.90
2017-05-16T23:14:13.286Z,15.90
2017-05-16T23:16:40.275Z,16.00
2017-05-16T23:19:07.270Z,16.00
2017-05-16T23:21:34.247Z,16.00
2017-05-16T23:24:01.194Z,16.00
2017-05-16T23:26:28.186Z,16.00
2017-05-16T23:28:55.144Z,16.00
2017-05-16T23:31:22.099Z,16.00
2017-05-16T23:33:49.054Z,16.00
2017-05-16T23:36:17.681Z,16.00
2017-05-16T23:38:44.746Z,16.00
2017-05-16T23:41:12.760Z,16.00
2017-05-16T23:43:40.478Z,15.90
2017-05-16T23:46:07.798Z,16.00
2017-05-16T23:48:35.536Z,15.90
2017-05-16T23:51:02.496Z,16.00
2017-05-16T23:53:30.254Z,16.00
2017-05-16T23:55:57.194Z,16.00
2017-05-16T23:58:24.181Z,16.00
